Time;durP1;ratioP1;P1;durP2;ratioP2;P2;SDS_P1;SDS_P2;PMS_P1;PMS_P2;Temp;Humidity;BMP_temperature;BMP_pressure;BME280_temperature;BME280_humidity;BME280_pressure;Samples;Min_cycle;Max_cycle;Signal;HPM_P1;HPM_P2
2022/01/27 00:01:01;;;;;;;15.40;9.45;;;;;;;;;;5048564;28;20033;-65
2022/01/27 00:03:13;;;;;;;17.50;8.57;;;;;;;;;;5036710;28;20032;-65
2022/01/27 00:05:41;;;;;;;18.17;9.80;;;;;;;;;;5041293;28;20171;-65
2022/01/27 00:08:15;;;;;;;17.85;8.27;;;;;;;;;;5041907;28;20036;-64
2022/01/27 00:10:52;;;;;;;20.08;9.52;;;;;;;;;;5046624;28;20051;-65
2022/01/27 00:13:23;;;;;;;14.07;7.93;;;;;;;;;;5039219;28;20034;-66
2022/01/27 00:15:58;;;;;;;15.63;8.60;;;;;;;;;;5041306;28;20127;-65
2022/01/27 00:18:24;;;;;;;26.83;8.88;;;;;;;;;;5040618;28;20529;-65
2022/01/27 00:20:50;;;;;;;16.98;8.30;;;;;;;;;;5042394;28;20029;-65
2022/01/27 00:23:17;;;;;;;16.38;9.20;;;;;;;;;;5036819;28;20022;-65
2022/01/27 00:25:43;;;;;;;15.45;7.85;;;;;;;;;;5039744;28;20445;-66
2022/01/27 00:28:09;;;;;;;18.95;7.10;;;;;;;;;;5039520;28;20021;-65
2022/01/27 00:30:36;;;;;;;18.55;8.63;;;;;;;;;;5042017;28;20048;-65
2022/01/27 00:33:03;;;;;;;17.80;8.65;;;;;;;;;;5040885;28;20506;-66
2022/01/27 00:35:30;;;;;;;16.58;8.55;;;;;;;;;;5039748;28;20029;-65
2022/01/27 00:37:56;;;;;;;15.13;8.00;;;;;;;;;;5039269;28;20029;-66
2022/01/27 00:40:22;;;;;;;15.77;7.90;;;;;;;;;;5036523;28;20112;-66
2022/01/27 00:42:48;;;;;;;15.32;8.65;;;;;;;;;;5043216;28;20460;-66
2022/01/27 00:45:15;;;;;;;16.05;8.27;;;;;;;;;;5039692;28;20021;-66
2022/01/27 00:47:41;;;;;;;12.43;7.53;;;;;;;;;;5041360;28;20052;-66
2022/01/27 00:50:07;;;;;;;14.88;7.65;;;;;;;;;;5041259;28;20510;-65
2022/01/27 00:52:41;;;;;;;14.43;7.47;;;;;;;;;;5040435;28;20112;-68
2022/01/27 00:55:08;;;;;;;19.00;7.85;;;;;;;;;;5039384;28;20040;-66
2022/01/27 01:00:32;;;;;;;13.52;7.80;;;;;;;;;;4998949;28;20103;-66
2022/01/27 01:03:05;;;;;;;13.90;7.07;;;;;;;;;;5043001;28;20148;-66
2022/01/27 01:16:25;;;;;;;17.05;7.28;;;;;;;;;;5028290;28;20434;-66
2022/01/27 01:19:02;;;;;;;11.82;6.93;;;;;;;;;;5045657;28;20052;-66
2022/01/27 01:34:29;;;;;;;13.82;6.82;;;;;;;;;;5046367;28;20120;-66
2022/01/27 01:36:56;;;;;;;16.15;6.88;;;;;;;;;;5047787;28;20843;-67
2022/01/27 01:39:24;;;;;;;12.90;6.72;;;;;;;;;;5046865;28;20021;-65
2022/01/27 01:41:50;;;;;;;11.95;6.18;;;;;;;;;;5048308;28;20033;-67
2022/01/27 01:44:16;;;;;;;14.10;7.65;;;;;;;;;;5048302;28;20025;-66
2022/01/27 01:46:43;;;;;;;12.13;6.22;;;;;;;;;;5051203;28;20179;-66
2022/01/27 01:49:09;;;;;;;12.15;6.30;;;;;;;;;;5050971;28;20488;-65
2022/01/27 01:51:36;;;;;;;10.80;6.43;;;;;;;;;;5033784;28;20470;-65
2022/01/27 01:54:03;;;;;;;14.35;7.28;;;;;;;;;;5051329;28;20083;-66
2022/01/27 01:56:29;;;;;;;10.63;6.70;;;;;;;;;;5052089;28;20021;-67
2022/01/27 01:58:55;;;;;;;11.93;5.32;;;;;;;;;;5051054;28;20116;-67
2022/01/27 02:01:21;;;;;;;11.02;6.78;;;;;;;;;;5051383;28;20039;-66
2022/01/27 02:03:48;;;;;;;13.30;6.70;;;;;;;;;;5051152;28;20029;-66
2022/01/27 02:06:23;;;;;;;13.52;6.13;;;;;;;;;;5051655;28;20128;-66
2022/01/27 02:19:44;;;;;;;11.13;6.32;;;;;;;;;;5051752;28;20047;-65
2022/01/27 02:22:10;;;;;;;14.27;6.68;;;;;;;;;;5051237;28;20104;-66
2022/01/27 02:24:36;;;;;;;14.73;6.20;;;;;;;;;;5050892;28;20100;-65
2022/01/27 02:27:03;;;;;;;11.38;6.20;;;;;;;;;;5050952;28;20053;-66
2022/01/27 02:29:29;;;;;;;12.52;6.25;;;;;;;;;;5050785;28;20072;-65
2022/01/27 02:31:56;;;;;;;11.95;5.90;;;;;;;;;;5051044;28;20057;-66
2022/01/27 02:34:22;;;;;;;12.98;5.95;;;;;;;;;;5050692;28;20025;-66
2022/01/27 02:36:48;;;;;;;11.52;6.80;;;;;;;;;;5046893;28;20037;-66
2022/01/27 02:39:16;;;;;;;11.07;5.95;;;;;;;;;;5030932;28;20159;-66
2022/01/27 02:41:51;;;;;;;18.15;6.60;;;;;;;;;;5049286;28;20108;-65
2022/01/27 02:44:24;;;;;;;15.93;6.97;;;;;;;;;;5050525;28;20498;-65
2022/01/27 02:46:51;;;;;;;11.35;6.00;;;;;;;;;;5043745;28;20167;-65
2022/01/27 02:49:17;;;;;;;16.60;6.45;;;;;;;;;;5039665;28;20057;-65
2022/01/27 02:51:43;;;;;;;15.50;6.00;;;;;;;;;;5045050;28;20021;-65
2022/01/27 02:54:09;;;;;;;12.45;5.85;;;;;;;;;;5040435;28;20056;-65
2022/01/27 02:56:43;;;;;;;13.70;6.10;;;;;;;;;;5044228;28;20577;-65
2022/01/27 02:59:09;;;;;;;20.63;6.38;;;;;;;;;;5040151;28;20025;-65
2022/01/27 03:01:35;;;;;;;12.43;6.93;;;;;;;;;;5043713;28;20144;-65
2022/01/27 03:04:01;;;;;;;16.80;7.38;;;;;;;;;;5042204;28;20444;-65
2022/01/27 03:06:27;;;;;;;20.58;6.95;;;;;;;;;;5046115;28;20059;-65
2022/01/27 03:08:53;;;;;;;14.27;6.55;;;;;;;;;;5042717;28;20677;-65
2022/01/27 03:11:33;;;;;;;16.65;5.88;;;;;;;;;;5043636;28;20453;-65
2022/01/27 03:13:59;;;;;;;16.10;5.90;;;;;;;;;;5041250;28;20013;-65
2022/01/27 03:16:25;;;;;;;14.90;5.95;;;;;;;;;;5044019;28;20463;-65
2022/01/27 03:18:51;;;;;;;12.35;6.20;;;;;;;;;;5047289;28;20501;-64
2022/01/27 03:21:17;;;;;;;13.05;5.63;;;;;;;;;;5049643;28;20495;-63
2022/01/27 03:23:43;;;;;;;17.85;5.88;;;;;;;;;;5047234;28;20547;-64
2022/01/27 03:26:09;;;;;;;13.90;5.65;;;;;;;;;;5039403;28;20029;-64
2022/01/27 03:28:36;;;;;;;17.05;5.68;;;;;;;;;;5046177;28;20029;-64
2022/01/27 03:31:03;;;;;;;11.43;5.40;;;;;;;;;;5038853;28;20465;-64
2022/01/27 03:33:29;;;;;;;11.60;5.57;;;;;;;;;;5044842;28;20037;-64
2022/01/27 03:35:55;;;;;;;12.10;5.85;;;;;;;;;;5042493;28;20383;-64
2022/01/27 03:38:21;;;;;;;8.18;5.28;;;;;;;;;;5045123;28;20915;-63
2022/01/27 03:40:47;;;;;;;11.52;6.28;;;;;;;;;;5041385;28;20104;-65
2022/01/27 03:43:13;;;;;;;11.88;5.80;;;;;;;;;;5043900;28;20040;-65
2022/01/27 03:45:39;;;;;;;10.30;5.75;;;;;;;;;;5039243;28;20426;-64
2022/01/27 03:48:06;;;;;;;13.73;5.65;;;;;;;;;;5044735;28;20606;-64
2022/01/27 03:50:33;;;;;;;13.25;5.90;;;;;;;;;;5042790;28;20052;-64
2022/01/27 03:52:59;;;;;;;10.38;5.68;;;;;;;;;;5043058;28;20483;-64
2022/01/27 03:55:25;;;;;;;14.57;5.95;;;;;;;;;;5048493;28;20025;-65
2022/01/27 03:57:51;;;;;;;13.38;6.32;;;;;;;;;;5048662;28;20098;-65
2022/01/27 04:00:17;;;;;;;13.57;5.97;;;;;;;;;;5048881;28;20107;-65
2022/01/27 04:03:19;;;;;;;12.48;5.57;;;;;;;;;;5047763;28;20036;-64
2022/01/27 04:05:40;;;;;;;14.82;5.20;;;;;;;;;;5037557;28;20479;-65
2022/01/27 04:08:08;;;;;;;12.52;6.00;;;;;;;;;;5047840;28;20025;-64
2022/01/27 04:10:34;;;;;;;10.60;5.28;;;;;;;;;;5048684;28;20051;-64
2022/01/27 04:13:01;;;;;;;15.32;5.57;;;;;;;;;;5048330;28;20100;-64
2022/01/27 04:15:27;;;;;;;12.10;5.53;;;;;;;;;;5048260;28;20104;-64
2022/01/27 04:17:53;;;;;;;10.65;5.18;;;;;;;;;;5048285;28;20106;-65
2022/01/27 04:20:20;;;;;;;14.20;4.90;;;;;;;;;;5048191;28;20108;-65
2022/01/27 04:22:47;;;;;;;13.45;5.85;;;;;;;;;;5048524;28;20056;-65
2022/01/27 04:25:14;;;;;;;10.55;4.88;;;;;;;;;;5048317;28;20184;-66
2022/01/27 04:27:44;;;;;;;12.32;5.63;;;;;;;;;;5048395;28;20059;-66
2022/01/27 04:30:15;;;;;;;15.63;5.88;;;;;;;;;;5047642;28;20079;-65
2022/01/27 04:32:47;;;;;;;9.20;5.15;;;;;;;;;;5048006;28;20048;-65
2022/01/27 04:35:17;;;;;;;14.20;5.65;;;;;;;;;;5047947;28;20054;-65
2022/01/27 04:37:57;;;;;;;13.85;5.45;;;;;;;;;;5027983;28;20136;-64
2022/01/27 04:48:44;;;;;;;10.45;5.05;;;;;;;;;;5048286;28;20071;-65
2022/01/27 04:51:14;;;;;;;10.13;5.03;;;;;;;;;;5047870;28;20044;-64
2022/01/27 04:53:50;;;;;;;20.33;5.32;;;;;;;;;;5044443;28;20049;-65
2022/01/27 04:56:17;;;;;;;16.13;7.03;;;;;;;;;;5046448;28;20558;-64
2022/01/27 04:58:47;;;;;;;12.45;6.85;;;;;;;;;;5039434;28;20124;-65
2022/01/27 05:01:15;;;;;;;19.20;7.53;;;;;;;;;;5048334;28;20028;-64
2022/01/27 05:03:53;;;;;;;17.80;7.63;;;;;;;;;;5047910;28;20041;-64
2022/01/27 05:06:19;;;;;;;16.27;7.18;;;;;;;;;;5048079;28;20025;-65
2022/01/27 05:08:45;;;;;;;14.38;7.85;;;;;;;;;;5048147;28;20060;-63
2022/01/27 05:11:19;;;;;;;20.08;7.40;;;;;;;;;;5047611;28;20037;-64
2022/01/27 05:14:27;;;;;;;13.25;7.72;;;;;;;;;;5048418;28;20040;-65
2022/01/27 05:16:34;;;;;;;15.63;7.87;;;;;;;;;;5035504;28;20453;-64
2022/01/27 05:19:01;;;;;;;13.00;6.93;;;;;;;;;;5045836;28;20033;-65
2022/01/27 05:21:27;;;;;;;15.45;7.60;;;;;;;;;;5047424;28;20036;-65
2022/01/27 05:23:53;;;;;;;12.95;7.80;;;;;;;;;;5047451;28;20025;-65
2022/01/27 05:26:19;;;;;;;13.38;7.63;;;;;;;;;;5047472;28;20033;-66
2022/01/27 05:28:45;;;;;;;13.43;8.82;;;;;;;;;;5047325;28;20664;-65
2022/01/27 05:31:11;;;;;;;15.48;9.32;;;;;;;;;;5047568;28;20147;-65
2022/01/27 05:33:37;;;;;;;13.05;7.63;;;;;;;;;;5047180;28;20468;-65
2022/01/27 05:36:04;;;;;;;18.13;9.32;;;;;;;;;;5047128;28;20013;-65
2022/01/27 05:38:30;;;;;;;15.52;9.38;;;;;;;;;;5046049;28;20533;-66
2022/01/27 05:40:56;;;;;;;18.95;8.20;;;;;;;;;;5041212;28;20029;-65
2022/01/27 05:43:22;;;;;;;16.60;9.70;;;;;;;;;;5045490;28;20159;-64
2022/01/27 05:45:48;;;;;;;12.98;8.45;;;;;;;;;;5031276;28;20112;-64
2022/01/27 05:48:14;;;;;;;16.23;9.05;;;;;;;;;;5045023;28;20116;-65
2022/01/27 05:50:40;;;;;;;14.98;8.20;;;;;;;;;;5026539;28;20120;-65
2022/01/27 05:53:06;;;;;;;13.05;8.40;;;;;;;;;;5044256;28;20450;-64
2022/01/27 05:55:32;;;;;;;18.90;9.23;;;;;;;;;;5044337;28;20439;-65
2022/01/27 05:57:58;;;;;;;15.68;8.38;;;;;;;;;;5044380;28;20112;-67
2022/01/27 06:00:24;;;;;;;14.02;8.68;;;;;;;;;;5044145;28;20087;-65
2022/01/27 06:02:51;;;;;;;15.00;8.43;;;;;;;;;;5044079;28;20048;-64
2022/01/27 06:05:17;;;;;;;12.85;8.13;;;;;;;;;;5044110;28;20111;-64
2022/01/27 06:07:43;;;;;;;14.38;8.48;;;;;;;;;;5042025;28;20040;-66
2022/01/27 06:10:09;;;;;;;15.43;8.88;;;;;;;;;;5044003;28;20060;-64
2022/01/27 06:12:44;;;;;;;16.75;8.95;;;;;;;;;;5040414;28;20024;-65
2022/01/27 06:15:10;;;;;;;13.85;8.45;;;;;;;;;;5044883;28;20112;-64
2022/01/27 06:17:36;;;;;;;14.23;8.80;;;;;;;;;;5045161;28;20546;-64
2022/01/27 06:20:03;;;;;;;14.77;8.23;;;;;;;;;;5044645;28;20567;-64
2022/01/27 06:22:29;;;;;;;15.73;8.63;;;;;;;;;;5043852;28;20050;-64
2022/01/27 06:24:55;;;;;;;14.10;8.25;;;;;;;;;;5044733;28;20921;-65
2022/01/27 06:27:21;;;;;;;13.55;8.10;;;;;;;;;;5044380;28;20095;-64
2022/01/27 06:29:47;;;;;;;15.82;8.38;;;;;;;;;;5043830;28;20037;-64
2022/01/27 06:32:13;;;;;;;16.05;9.00;;;;;;;;;;5047809;28;20047;-64
2022/01/27 06:34:39;;;;;;;14.82;8.48;;;;;;;;;;5047818;28;20021;-64
2022/01/27 06:37:05;;;;;;;13.50;7.80;;;;;;;;;;5047885;28;20083;-65
2022/01/27 06:39:31;;;;;;;14.57;8.73;;;;;;;;;;5048055;28;20052;-65
2022/01/27 06:41:57;;;;;;;13.23;8.25;;;;;;;;;;5048130;28;20037;-64
2022/01/27 06:44:23;;;;;;;13.02;8.40;;;;;;;;;;5047805;28;20021;-63
2022/01/27 06:46:49;;;;;;;11.88;7.28;;;;;;;;;;5047495;28;20053;-64
2022/01/27 06:49:16;;;;;;;17.38;8.93;;;;;;;;;;5047539;28;20068;-65
2022/01/27 06:51:47;;;;;;;14.20;7.75;;;;;;;;;;5047516;28;20037;-64
2022/01/27 06:54:13;;;;;;;;;;;;;;;;;;5048324;28;20032;-64
2022/01/27 06:56:40;;;;;;;14.85;7.32;;;;;;;;;;5047673;28;19971;-63
2022/01/27 06:59:06;;;;;;;13.80;7.43;;;;;;;;;;5047058;28;20021;-64
2022/01/27 07:01:32;;;;;;;15.30;7.35;;;;;;;;;;5047863;28;20029;-64
2022/01/27 07:03:58;;;;;;;13.70;7.50;;;;;;;;;;5047336;28;20032;-64
2022/01/27 07:06:25;;;;;;;12.77;6.78;;;;;;;;;;5047459;28;20041;-64
2022/01/27 07:08:51;;;;;;;14.82;7.47;;;;;;;;;;5047553;28;20037;-64
2022/01/27 07:11:17;;;;;;;10.95;6.95;;;;;;;;;;5047369;28;20548;-65
2022/01/27 07:13:44;;;;;;;12.73;7.53;;;;;;;;;;5046610;28;20465;-65
2022/01/27 07:16:10;;;;;;;14.00;7.55;;;;;;;;;;5047178;28;20362;-66
2022/01/27 07:18:37;;;;;;;13.05;7.15;;;;;;;;;;5046800;28;20029;-65
2022/01/27 07:21:06;;;;;;;11.82;6.88;;;;;;;;;;5046385;28;20032;-63
2022/01/27 07:23:32;;;;;;;12.73;6.45;;;;;;;;;;5046456;28;20033;-64
2022/01/27 07:25:58;;;;;;;14.50;7.18;;;;;;;;;;5047152;28;20055;-64
2022/01/27 07:28:24;;;;;;;13.57;7.25;;;;;;;;;;5046192;28;20090;-65
2022/01/27 07:30:50;;;;;;;13.20;7.38;;;;;;;;;;5046501;28;20064;-65
2022/01/27 07:33:16;;;;;;;13.52;7.30;;;;;;;;;;5046255;28;20033;-63
2022/01/27 07:35:43;;;;;;;13.48;7.20;;;;;;;;;;5046030;28;20049;-64
2022/01/27 07:38:09;;;;;;;12.57;6.70;;;;;;;;;;5046483;28;20029;-64
2022/01/27 07:40:35;;;;;;;14.77;6.85;;;;;;;;;;5046667;28;20052;-64
2022/01/27 07:43:01;;;;;;;14.63;6.85;;;;;;;;;;5045880;28;20037;-65
2022/01/27 07:45:27;;;;;;;14.35;6.55;;;;;;;;;;5047017;28;20479;-65
2022/01/27 07:47:53;;;;;;;12.18;6.35;;;;;;;;;;5047103;28;20132;-65
2022/01/27 07:50:20;;;;;;;11.35;6.47;;;;;;;;;;5046556;28;20045;-64
2022/01/27 07:52:46;;;;;;;13.18;6.60;;;;;;;;;;5046826;28;20037;-64
2022/01/27 07:55:12;;;;;;;12.50;6.97;;;;;;;;;;5046887;28;20025;-64
2022/01/27 07:57:38;;;;;;;14.57;6.50;;;;;;;;;;5046606;28;20044;-65
2022/01/27 08:00:05;;;;;;;12.30;6.20;;;;;;;;;;5046643;28;20035;-64
2022/01/27 08:02:31;;;;;;;13.93;7.30;;;;;;;;;;5043833;28;20041;-65
2022/01/27 08:04:57;;;;;;;14.30;6.80;;;;;;;;;;5032643;28;20466;-65
2022/01/27 08:07:23;;;;;;;15.90;6.63;;;;;;;;;;5037369;28;20828;-65
2022/01/27 08:09:49;;;;;;;13.07;6.30;;;;;;;;;;5035020;28;20550;-65
2022/01/27 08:12:16;;;;;;;10.75;5.90;;;;;;;;;;5035221;28;20033;-65
2022/01/27 08:14:42;;;;;;;15.63;7.25;;;;;;;;;;5040069;28;20033;-64
2022/01/27 08:17:08;;;;;;;15.98;7.10;;;;;;;;;;5034594;28;20546;-65
2022/01/27 08:19:34;;;;;;;13.23;7.63;;;;;;;;;;5043947;28;20024;-65
2022/01/27 08:22:00;;;;;;;17.33;6.85;;;;;;;;;;5046801;28;20036;-65
2022/01/27 08:24:26;;;;;;;23.17;7.13;;;;;;;;;;5047101;28;20358;-65
2022/01/27 08:26:58;;;;;;;18.25;6.68;;;;;;;;;;5046900;28;20479;-65
2022/01/27 08:29:32;;;;;;;18.23;6.97;;;;;;;;;;5038989;28;20036;-66
2022/01/27 08:32:02;;;;;;;17.83;7.60;;;;;;;;;;5038458;28;20064;-66
2022/01/27 08:34:37;;;;;;;20.02;8.18;;;;;;;;;;5045318;28;20032;-65
2022/01/27 08:37:07;;;;;;;19.88;7.70;;;;;;;;;;5047675;28;20039;-66
2022/01/27 08:39:33;;;;;;;17.30;8.20;;;;;;;;;;5034539;28;20503;-67
2022/01/27 08:41:59;;;;;;;18.42;6.72;;;;;;;;;;5047134;28;20511;-65
2022/01/27 08:44:26;;;;;;;15.23;7.97;;;;;;;;;;5048852;28;20032;-65
2022/01/27 08:46:52;;;;;;;13.23;7.10;;;;;;;;;;5032123;28;20060;-65
2022/01/27 08:49:21;;;;;;;16.42;7.00;;;;;;;;;;5032764;28;20139;-65
2022/01/27 08:51:47;;;;;;;14.18;7.60;;;;;;;;;;5037922;28;20123;-64
2022/01/27 08:54:13;;;;;;;12.18;7.07;;;;;;;;;;5032888;28;20112;-64
2022/01/27 08:56:39;;;;;;;16.60;7.03;;;;;;;;;;5041837;28;20025;-64
2022/01/27 08:59:05;;;;;;;15.07;7.78;;;;;;;;;;5034978;28;20035;-64
2022/01/27 09:01:31;;;;;;;14.45;6.47;;;;;;;;;;5039783;28;20033;-64
2022/01/27 09:03:57;;;;;;;16.20;6.95;;;;;;;;;;5032909;28;20109;-64
2022/01/27 09:06:23;;;;;;;13.02;6.80;;;;;;;;;;5030864;28;20026;-64
2022/01/27 09:08:52;;;;;;;12.88;6.45;;;;;;;;;;5039773;28;20025;-65
2022/01/27 09:11:18;;;;;;;14.00;6.88;;;;;;;;;;5040034;28;20052;-64
2022/01/27 09:13:44;;;;;;;12.40;6.20;;;;;;;;;;5041318;28;20497;-64
2022/01/27 09:16:11;;;;;;;18.13;6.72;;;;;;;;;;5033911;28;20460;-66
2022/01/27 09:18:37;;;;;;;13.07;7.35;;;;;;;;;;5035134;28;20025;-64
2022/01/27 09:21:09;;;;;;;13.90;7.10;;;;;;;;;;5031743;28;20404;-64
2022/01/27 09:23:35;;;;;;;12.57;6.88;;;;;;;;;;5040279;28;20442;-65
2022/01/27 09:26:09;;;;;;;12.23;6.82;;;;;;;;;;5038326;28;20093;-66
2022/01/27 09:28:35;;;;;;;14.05;5.88;;;;;;;;;;5038696;28;20028;-64
2022/01/27 09:31:01;;;;;;;14.30;7.18;;;;;;;;;;5039160;28;20033;-65
2022/01/27 09:33:28;;;;;;;17.77;6.88;;;;;;;;;;5041181;28;20507;-65
2022/01/27 09:35:54;;;;;;;17.23;6.20;;;;;;;;;;5040003;28;20112;-66
2022/01/27 09:38:20;;;;;;;13.05;6.30;;;;;;;;;;5044598;28;20108;-66
2022/01/27 09:40:51;;;;;;;20.58;7.03;;;;;;;;;;5043150;28;20115;-66
2022/01/27 09:43:17;;;;;;;13.73;6.50;;;;;;;;;;5046141;28;20033;-66
2022/01/27 09:45:44;;;;;;;15.73;7.90;;;;;;;;;;5045263;28;20479;-65
2022/01/27 09:48:15;;;;;;;12.15;6.25;;;;;;;;;;5047389;28;20028;-71
2022/01/27 09:53:08;;;;;;;14.52;6.43;;;;;;;;;;5045601;28;20120;-66
2022/01/27 09:55:34;;;;;;;12.63;6.05;;;;;;;;;;5046236;28;20049;-65
2022/01/27 09:58:01;;;;;;;15.02;6.40;;;;;;;;;;5046647;28;20247;-65
2022/01/27 10:00:28;;;;;;;13.57;5.70;;;;;;;;;;5046586;28;20061;-66
2022/01/27 10:03:04;;;;;;;16.08;5.45;;;;;;;;;;5046607;28;20040;-66
2022/01/27 10:05:31;;;;;;;12.35;5.22;;;;;;;;;;5046983;28;20052;-66
2022/01/27 10:08:18;;;;;;;12.90;5.28;;;;;;;;;;5049843;28;20087;-65
2022/01/27 10:10:45;;;;;;;13.45;5.40;;;;;;;;;;5049141;28;20041;-66
2022/01/27 10:13:12;;;;;;;11.73;5.40;;;;;;;;;;5049888;28;20029;-65
2022/01/27 10:15:39;;;;;;;12.90;5.55;;;;;;;;;;5049507;28;20052;-65
2022/01/27 10:18:07;;;;;;;10.27;5.70;;;;;;;;;;5049340;28;20112;-65
2022/01/27 10:20:34;;;;;;;8.02;5.10;;;;;;;;;;5049295;28;20037;-64
2022/01/27 10:23:20;;;;;;;9.82;4.82;;;;;;;;;;5051054;28;20040;-64
2022/01/27 10:25:51;;;;;;;11.77;5.43;;;;;;;;;;5051099;28;20028;-65
2022/01/27 10:28:36;;;;;;;11.23;5.82;;;;;;;;;;5051419;28;20029;-65
2022/01/27 10:31:03;;;;;;;11.73;4.85;;;;;;;;;;5049842;28;20814;-65
2022/01/27 10:33:40;;;;;;;11.32;4.85;;;;;;;;;;5041470;28;20079;-66
2022/01/27 10:36:16;;;;;;;8.38;4.50;;;;;;;;;;5042004;28;20116;-66
2022/01/27 10:38:42;;;;;;;12.48;5.07;;;;;;;;;;5041330;28;20040;-65
2022/01/27 10:41:09;;;;;;;7.85;3.92;;;;;;;;;;5042829;28;20045;-66
2022/01/27 10:43:35;;;;;;;8.13;3.97;;;;;;;;;;5042422;28;20068;-65
2022/01/27 10:46:06;;;;;;;10.23;4.82;;;;;;;;;;5041131;28;20116;-66
2022/01/27 10:48:35;;;;;;;8.98;4.65;;;;;;;;;;5044211;28;20033;-66
2022/01/27 10:51:05;;;;;;;9.43;4.05;;;;;;;;;;5039205;28;20040;-66
2022/01/27 10:53:45;;;;;;;8.90;5.00;;;;;;;;;;5041910;28;20039;-66
2022/01/27 10:56:15;;;;;;;7.68;4.25;;;;;;;;;;5040164;28;20555;-66
2022/01/27 10:58:42;;;;;;;9.80;4.25;;;;;;;;;;5046482;28;20112;-65
2022/01/27 11:01:08;;;;;;;7.78;4.10;;;;;;;;;;5050820;28;20132;-66
2022/01/27 11:03:35;;;;;;;8.63;4.22;;;;;;;;;;5050703;28;20527;-65
2022/01/27 11:06:09;;;;;;;7.28;3.72;;;;;;;;;;5050964;28;20037;-64
2022/01/27 11:08:36;;;;;;;8.25;3.53;;;;;;;;;;5050221;28;20028;-65
2022/01/27 11:11:03;;;;;;;9.07;4.18;;;;;;;;;;5049650;28;20033;-65
2022/01/27 11:13:29;;;;;;;7.68;3.70;;;;;;;;;;5049314;28;20021;-65
2022/01/27 11:15:55;;;;;;;7.28;3.95;;;;;;;;;;5049794;28;20025;-65
2022/01/27 11:18:24;;;;;;;9.48;5.25;;;;;;;;;;5049602;28;20021;-65
2022/01/27 11:20:56;;;;;;;8.55;4.45;;;;;;;;;;5049970;28;20147;-66
2022/01/27 11:25:54;;;;;;;6.43;3.53;;;;;;;;;;5049915;28;20387;-66
2022/01/27 11:28:21;;;;;;;9.00;3.53;;;;;;;;;;5049537;28;20610;-66
2022/01/27 11:31:07;;;;;;;10.27;3.80;;;;;;;;;;5049671;28;20041;-65
2022/01/27 11:33:34;;;;;;;10.13;4.10;;;;;;;;;;5049311;28;20032;-65
2022/01/27 11:36:10;;;;;;;7.07;3.70;;;;;;;;;;5049356;28;20024;-65
2022/01/27 11:38:42;;;;;;;9.23;3.80;;;;;;;;;;5049460;28;20033;-65
2022/01/27 11:41:28;;;;;;;7.45;3.70;;;;;;;;;;5049518;28;20102;-65
2022/01/27 11:44:14;;;;;;;7.43;3.60;;;;;;;;;;5048685;28;20100;-65
2022/01/27 11:46:40;;;;;;;8.90;4.10;;;;;;;;;;5048706;28;20124;-66
2022/01/27 11:49:06;;;;;;;8.43;4.25;;;;;;;;;;5049048;28;20017;-66
2022/01/27 11:51:32;;;;;;;8.65;4.05;;;;;;;;;;5048463;28;20087;-65
2022/01/27 11:54:00;;;;;;;8.50;3.85;;;;;;;;;;5049153;28;20418;-66
2022/01/27 11:56:35;;;;;;;9.90;4.57;;;;;;;;;;5048669;28;20035;-66
2022/01/27 11:59:02;;;;;;;10.10;4.20;;;;;;;;;;5048520;28;20514;-66
2022/01/27 12:01:29;;;;;;;12.68;4.68;;;;;;;;;;5048544;28;20032;-65
2022/01/27 12:04:07;;;;;;;10.52;4.40;;;;;;;;;;5047794;28;20021;-65
2022/01/27 12:06:48;;;;;;;9.38;4.38;;;;;;;;;;5037967;28;20572;-65
2022/01/27 12:09:18;;;;;;;9.63;4.15;;;;;;;;;;5047768;28;20024;-65
2022/01/27 12:11:56;;;;;;;9.80;4.45;;;;;;;;;;5047534;28;20130;-66
2022/01/27 12:14:26;;;;;;;12.25;4.30;;;;;;;;;;5047703;28;20059;-66
2022/01/27 12:17:10;;;;;;;10.38;4.43;;;;;;;;;;5047652;28;20029;-65
2022/01/27 12:19:56;;;;;;;7.70;4.15;;;;;;;;;;5048626;28;20059;-65
2022/01/27 12:22:26;;;;;;;10.43;4.40;;;;;;;;;;5031300;28;20045;-65
2022/01/27 12:24:52;;;;;;;;;;;;;;;;;;5049038;28;20040;-65
2022/01/27 12:27:18;;;;;;;11.45;5.57;;;;;;;;;;5048494;28;19905;-66
2022/01/27 12:29:52;;;;;;;7.95;4.85;;;;;;;;;;5047392;28;20071;-65
2022/01/27 12:32:18;;;;;;;8.73;4.05;;;;;;;;;;5037437;28;20017;-65
2022/01/27 12:34:57;;;;;;;9.32;4.63;;;;;;;;;;5041588;28;20021;-66
2022/01/27 12:37:24;;;;;;;9.63;4.57;;;;;;;;;;5046005;28;20033;-65
2022/01/27 12:39:57;;;;;;;10.45;4.68;;;;;;;;;;5043959;28;20212;-65
2022/01/27 12:42:33;;;;;;;8.32;3.55;;;;;;;;;;5040107;28;20506;-65
2022/01/27 12:45:01;;;;;;;9.10;3.92;;;;;;;;;;5037919;28;20108;-65
2022/01/27 12:47:29;;;;;;;10.57;4.38;;;;;;;;;;5039401;28;20048;-65
2022/01/27 12:50:04;;;;;;;8.30;4.10;;;;;;;;;;5035364;28;20105;-66
2022/01/27 12:52:33;;;;;;;8.98;4.28;;;;;;;;;;5047386;28;20036;-66
2022/01/27 12:54:59;;;;;;;8.32;4.53;;;;;;;;;;5040552;28;20403;-66
2022/01/27 12:57:26;;;;;;;8.52;3.85;;;;;;;;;;5047682;28;20082;-66
2022/01/27 12:59:54;;;;;;;10.07;4.30;;;;;;;;;;5047964;28;20039;-65
2022/01/27 13:02:21;;;;;;;9.98;4.05;;;;;;;;;;5047578;28;20542;-65
2022/01/27 13:04:49;;;;;;;10.13;4.07;;;;;;;;;;5046936;28;20033;-64
2022/01/27 13:07:15;;;;;;;12.48;4.15;;;;;;;;;;5047529;28;20025;-66
2022/01/27 13:09:41;;;;;;;8.88;4.28;;;;;;;;;;5046652;28;20021;-65
2022/01/27 13:12:11;;;;;;;10.77;4.50;;;;;;;;;;5046535;28;20029;-65
2022/01/27 13:14:59;;;;;;;8.50;3.90;;;;;;;;;;5040588;28;20440;-66
2022/01/27 13:17:53;;;;;;;9.05;3.65;;;;;;;;;;5022047;28;20493;-65
2022/01/27 13:20:30;;;;;;;7.93;3.60;;;;;;;;;;5040501;28;20028;-64
2022/01/27 13:23:03;;;;;;;9.82;4.22;;;;;;;;;;5039733;28;20045;-64
2022/01/27 13:26:00;;;;;;;12.75;4.53;;;;;;;;;;5038139;28;20462;-65
2022/01/27 13:28:32;;;;;;;9.68;3.80;;;;;;;;;;5012136;28;20025;-65
2022/01/27 13:31:00;;;;;;;7.63;3.22;;;;;;;;;;5044857;28;20085;-64
2022/01/27 13:33:27;;;;;;;10.50;3.85;;;;;;;;;;5047471;28;20036;-65
2022/01/27 13:35:54;;;;;;;7.63;3.50;;;;;;;;;;5045727;28;20025;-65
2022/01/27 13:38:38;;;;;;;7.60;3.53;;;;;;;;;;5036368;28;20029;-65
2022/01/27 13:41:16;;;;;;;10.30;3.67;;;;;;;;;;5044905;28;20139;-65
2022/01/27 13:43:42;;;;;;;11.60;4.15;;;;;;;;;;5038555;28;20030;-65
2022/01/27 13:46:09;;;;;;;9.68;3.65;;;;;;;;;;5046410;28;20128;-65
2022/01/27 13:48:43;;;;;;;8.65;3.60;;;;;;;;;;5040034;28;20096;-65
2022/01/27 13:51:16;;;;;;;6.57;3.22;;;;;;;;;;5042054;28;20040;-65
2022/01/27 13:53:56;;;;;;;8.30;3.30;;;;;;;;;;5041844;28;20025;-65
2022/01/27 13:56:22;;;;;;;11.00;3.60;;;;;;;;;;5043132;28;20083;-66
2022/01/27 13:59:08;;;;;;;7.55;3.08;;;;;;;;;;5036303;28;20029;-66
2022/01/27 14:01:34;;;;;;;8.85;3.30;;;;;;;;;;5046960;28;20036;-65
2022/01/27 14:04:00;;;;;;;7.38;3.58;;;;;;;;;;5039978;28;20489;-65
2022/01/27 14:06:26;;;;;;;10.30;3.58;;;;;;;;;;5046881;28;20029;-65
2022/01/27 14:08:57;;;;;;;7.82;3.45;;;;;;;;;;5042580;28;20049;-65
2022/01/27 14:11:36;;;;;;;7.65;2.83;;;;;;;;;;5047734;28;20041;-65
2022/01/27 14:14:04;;;;;;;9.95;3.17;;;;;;;;;;5044880;28;20036;-65
2022/01/27 14:16:32;;;;;;;8.75;3.28;;;;;;;;;;5044909;28;20024;-64
2022/01/27 14:19:09;;;;;;;11.60;3.08;;;;;;;;;;5041995;28;20029;-65
2022/01/27 14:21:40;;;;;;;6.57;2.67;;;;;;;;;;5046255;28;20030;-64
2022/01/27 14:24:09;;;;;;;8.35;2.95;;;;;;;;;;5041089;28;20491;-64
2022/01/27 14:26:41;;;;;;;10.73;3.47;;;;;;;;;;5046094;28;20044;-65
2022/01/27 14:29:16;;;;;;;9.00;3.17;;;;;;;;;;5047392;28;20036;-66
2022/01/27 14:31:49;;;;;;;6.53;2.65;;;;;;;;;;5041463;28;20041;-65
2022/01/27 14:34:16;;;;;;;5.45;3.13;;;;;;;;;;5056623;28;20124;-65
2022/01/27 14:36:43;;;;;;;7.22;2.42;;;;;;;;;;5056157;28;20025;-65
2022/01/27 14:39:09;;;;;;;10.23;3.28;;;;;;;;;;5054269;28;20029;-65
2022/01/27 14:41:36;;;;;;;7.78;2.63;;;;;;;;;;5044198;28;20056;-65
2022/01/27 14:44:02;;;;;;;7.70;2.72;;;;;;;;;;5043408;28;20025;-65
2022/01/27 14:46:40;;;;;;;7.50;2.65;;;;;;;;;;5049526;28;20084;-65
2022/01/27 14:49:08;;;;;;;7.78;3.35;;;;;;;;;;5044876;28;20025;-65
2022/01/27 14:51:35;;;;;;;6.88;2.65;;;;;;;;;;5049212;28;20441;-66
2022/01/27 14:54:02;;;;;;;5.90;2.25;;;;;;;;;;5049384;28;20029;-65
2022/01/27 14:56:28;;;;;;;6.72;2.70;;;;;;;;;;5049790;28;20108;-65
2022/01/27 14:58:54;;;;;;;6.18;2.38;;;;;;;;;;5049509;28;20032;-65
2022/01/27 15:01:20;;;;;;;8.82;3.00;;;;;;;;;;5049426;28;20667;-66
2022/01/27 15:03:46;;;;;;;7.40;2.75;;;;;;;;;;5049637;28;20025;-65
2022/01/27 15:06:12;;;;;;;7.75;2.50;;;;;;;;;;5049741;28;20659;-65
2022/01/27 15:08:39;;;;;;;8.25;2.83;;;;;;;;;;5049158;28;20438;-65
2022/01/27 15:11:05;;;;;;;7.82;2.75;;;;;;;;;;5049750;28;20482;-65
2022/01/27 15:13:33;;;;;;;12.68;2.72;;;;;;;;;;5049162;28;20021;-65
2022/01/27 15:18:48;;;;;;;6.50;2.00;;;;;;;;;;5048911;28;20150;-65
2022/01/27 15:21:15;;;;;;;7.22;2.55;;;;;;;;;;5050419;28;20032;-66
2022/01/27 15:23:42;;;;;;;12.48;3.47;;;;;;;;;;5049275;28;20118;-65
2022/01/27 15:26:09;;;;;;;8.73;2.97;;;;;;;;;;5049451;28;20025;-65
2022/01/27 15:28:36;;;;;;;8.77;2.40;;;;;;;;;;5048675;28;20715;-64
2022/01/27 15:31:03;;;;;;;7.43;2.22;;;;;;;;;;5049282;28;20028;-64
2022/01/27 15:33:30;;;;;;;8.15;3.33;;;;;;;;;;5048492;28;20032;-65
2022/01/27 15:35:56;;;;;;;7.05;2.53;;;;;;;;;;5049252;28;20819;-65